Station Historical Data
Daily Summary for December 13, 2011 Units:  Both    English   Metric
« Previous Day
Next Day »
Daily Weekly Monthly Yearly Custom
  High: Low: Average:
Temperature: 59.4 °F /  15.2 °C 46.6 °F /  8.1 °C 51.2 °F /  10.7 °C
Dew Point: 51.8 °F /  11 °C 44.8 °F /  7.1 °C 47.8 °F /  8.8 °C
Humidity: 96% 74% 89%
Wind Speed: 6.0mph /  9.7km/h - 2mph /  3.2km/h
Wind Gust: 8.0mph /  12.9km/h - -
Wind- - ESE
Pressure: 30.48 in /  1032.1 hPa 30.33 in /  1027 hPa -
Precipitation: 0.00 in /  0 mm    
Historical Graphs
 
 
Tabular Data for December 13, 2011
Time Temperature Dew Point Pressure Wind Wind Speed Wind Gust Humidity Rainfall Rate (Hourly) Conditions
00:00 48.3 °F /  9.1 °C 44.9 °F /  7.2 °C 30.41in /  1029.7hPa SE 6.0mph /  9.7km/h 8.0mph /  12.9km/h 88% 0.00in /  0mm
00:01 48.3 °F /  9.1 °C 44.9 °F /  7.2 °C 30.42in /  1030hPa SE 6.0mph /  9.7km/h 8.0mph /  12.9km/h 88% 0.00in /  0mm
00:06 48.3 °F /  9.1 °C 44.9 °F /  7.2 °C 30.42in /  1030hPa SSE 6.0mph /  9.7km/h 6.0mph /  9.7km/h 88% 0.00in /  0mm
00:11 48.3 °F /  9.1 °C 44.9 °F /  7.2 °C 30.41in /  1029.7hPa ESE 6.0mph /  9.7km/h 6.0mph /  9.7km/h 88% 0.00in /  0mm
00:16 48.3 °F /  9.1 °C 44.9 °F /  7.2 °C 30.42in /  1030hPa SE 5.0mph /  8km/h 7.0mph /  11.3km/h 88% 0.00in /  0mm
00:21 48.3 °F /  9.1 °C 44.9 °F /  7.2 °C 30.42in /  1030hPa SE 3.0mph /  4.8km/h 4.0mph /  6.4km/h 88% 0.00in /  0mm
00:26 48.3 °F /  9.1 °C 44.9 °F /  7.2 °C 30.42in /  1030hPa SSE 4.0mph /  6.4km/h 6.0mph /  9.7km/h 88% 0.00in /  0mm
00:31 48.2 °F /  9 °C 44.8 °F /  7.1 °C 30.42in /  1030hPa SE 2.0mph /  3.2km/h 5.0mph /  8km/h 88% 0.00in /  0mm
00:36 48.2 °F /  9 °C 44.8 °F /  7.1 °C 30.42in /  1030hPa SSE 1.0mph /  1.6km/h 2.0mph /  3.2km/h 88% 0.00in /  0mm
00:41 48.2 °F /  9 °C 44.8 °F /  7.1 °C 30.42in /  1030hPa SE 1.0mph /  1.6km/h 3.0mph /  4.8km/h 88% 0.00in /  0mm
00:46 48.2 °F /  9 °C 44.8 °F /  7.1 °C 30.42in /  1030hPa SSE 2.0mph /  3.2km/h 2.0mph /  3.2km/h 88% 0.00in /  0mm
00:51 48.1 °F /  8.9 °C 45.0 °F /  7.2 °C 30.42in /  1030hPa SSE 2.0mph /  3.2km/h 2.0mph /  3.2km/h 89% 0.00in /  0mm
00:56 48.1 °F /  8.9 °C 45.0 °F /  7.2 °C 30.42in /  1030hPa SE 2.0mph /  3.2km/h 3.0mph /  4.8km/h 89% 0.00in /  0mm
01:01 48.1 °F /  8.9 °C 45.0 °F /  7.2 °C 30.42in /  1030hPa SE 1.0mph /  1.6km/h 3.0mph /  4.8km/h 89% 0.00in /  0mm
01:06 48.1 °F /  8.9 °C 45.0 °F /  7.2 °C 30.42in /  1030hPa ESE 3.0mph /  4.8km/h 3.0mph /  4.8km/h 89% 0.00in /  0mm
01:11 48.0 °F /  8.9 °C 44.9 °F /  7.2 °C 30.42in /  1030hPa SE 4.0mph /  6.4km/h 4.0mph /  6.4km/h 89% 0.00in /  0mm
01:16 48.0 °F /  8.9 °C 44.9 °F /  7.2 °C 30.41in /  1029.7hPa ESE 2.0mph /  3.2km/h 4.0mph /  6.4km/h 89% 0.00in /  0mm
01:21 48.0 °F /  8.9 °C 44.9 °F /  7.2 °C 30.41in /  1029.7hPa ESE 3.0mph /  4.8km/h 4.0mph /  6.4km/h 89% 0.00in /  0mm
01:26 47.9 °F /  8.8 °C 44.8 °F /  7.1 °C 30.41in /  1029.7hPa SE 2.0mph /  3.2km/h 4.0mph /  6.4km/h 89% 0.00in /  0mm
01:31 47.9 °F /  8.8 °C 44.8 °F /  7.1 °C 30.41in /  1029.7hPa ESE 6.0mph /  9.7km/h 6.0mph /  9.7km/h 89% 0.00in /  0mm
01:36 47.8 °F /  8.8 °C 45.0 °F /  7.2 °C 30.41in /  1029.7hPa ESE 6.0mph /  9.7km/h 7.0mph /  11.3km/h 90% 0.00in /  0mm
01:41 47.8 °F /  8.8 °C 45.0 °F /  7.2 °C 30.41in /  1029.7hPa ESE 5.0mph /  8km/h 6.0mph /  9.7km/h 90% 0.00in /  0mm
01:46 47.7 °F /  8.7 °C 45.2 °F /  7.3 °C 30.40in /  1029.3hPa ESE 6.0mph /  9.7km/h 6.0mph /  9.7km/h 91% 0.00in /  0mm
01:51 47.7 °F /  8.7 °C 45.2 °F /  7.3 °C 30.40in /  1029.3hPa SE 4.0mph /  6.4km/h 6.0mph /  9.7km/h 91% 0.00in /  0mm
01:56 47.6 °F /  8.7 °C 45.1 °F /  7.3 °C 30.41in /  1029.7hPa SE 3.0mph /  4.8km/h 5.0mph /  8km/h 91% 0.00in /  0mm
02:01 47.6 °F /  8.7 °C 45.1 °F /  7.3 °C 30.40in /  1029.3hPa ESE 3.0mph /  4.8km/h 4.0mph /  6.4km/h 91% 0.00in /  0mm
02:06 47.6 °F /  8.7 °C 45.1 °F /  7.3 °C 30.40in /  1029.3hPa SE 3.0mph /  4.8km/h 4.0mph /  6.4km/h 91% 0.00in /  0mm
02:11 47.5 °F /  8.6 °C 45.0 °F /  7.2 °C 30.40in /  1029.3hPa ESE 4.0mph /  6.4km/h 5.0mph /  8km/h 91% 0.00in /  0mm
02:16 47.5 °F /  8.6 °C 45.0 °F /  7.2 °C 30.40in /  1029.3hPa SE 1.0mph /  1.6km/h 4.0mph /  6.4km/h 91% 0.00in /  0mm
02:21 47.4 °F /  8.6 °C 44.9 °F /  7.2 °C 30.41in /  1029.7hPa Calm   1.0mph /  1.6km/h 91% 0.00in /  0mm
02:26 47.4 °F /  8.6 °C 45.2 °F /  7.3 °C 30.41in /  1029.7hPa SE 3.0mph /  4.8km/h 3.0mph /  4.8km/h 92% 0.00in /  0mm
02:31 47.4 °F /  8.6 °C 45.2 °F /  7.3 °C 30.40in /  1029.3hPa SSE 3.0mph /  4.8km/h 4.0mph /  6.4km/h 92% 0.00in /  0mm
02:36 47.5 °F /  8.6 °C 45.3 °F /  7.4 °C 30.40in /  1029.3hPa SE 2.0mph /  3.2km/h 5.0mph /  8km/h 92% 0.00in /  0mm
02:41 47.5 °F /  8.6 °C 45.3 °F /  7.4 °C 30.40in /  1029.3hPa SE 2.0mph /  3.2km/h 4.0mph /  6.4km/h 92% 0.00in /  0mm
02:47 47.5 °F /  8.6 °C 45.3 °F /  7.4 °C 30.40in /  1029.3hPa SE 3.0mph /  4.8km/h 4.0mph /  6.4km/h 92% 0.00in /  0mm
02:52 47.4 °F /  8.6 °C 45.2 °F /  7.3 °C 30.40in /  1029.3hPa SSE 5.0mph /  8km/h 5.0mph /  8km/h 92% 0.00in /  0mm
02:57 47.4 °F /  8.6 °C 45.2 °F /  7.3 °C 30.40in /  1029.3hPa SE 4.0mph /  6.4km/h 5.0mph /  8km/h 92% 0.00in /  0mm
03:02 47.3 °F /  8.5 °C 45.1 °F /  7.3 °C 30.40in /  1029.3hPa SE 3.0mph /  4.8km/h 5.0mph /  8km/h 92% 0.00in /  0mm
03:07 47.3 °F /  8.5 °C 45.1 °F /  7.3 °C 30.40in /  1029.3hPa SE 4.0mph /  6.4km/h 7.0mph /  11.3km/h 92% 0.00in /  0mm
03:12 47.3 °F /  8.5 °C 45.1 °F /  7.3 °C 30.39in /  1029hPa ESE 5.0mph /  8km/h 7.0mph /  11.3km/h 92% 0.00in /  0mm
03:17 47.3 °F /  8.5 °C 45.1 °F /  7.3 °C 30.39in /  1029hPa East 3.0mph /  4.8km/h 4.0mph /  6.4km/h 92% 0.00in /  0mm
03:22 47.3 °F /  8.5 °C 45.1 °F /  7.3 °C 30.39in /  1029hPa East 2.0mph /  3.2km/h 4.0mph /  6.4km/h 92% 0.00in /  0mm
03:27 47.3 °F /  8.5 °C 45.1 °F /  7.3 °C 30.39in /  1029hPa ESE 3.0mph /  4.8km/h 4.0mph /  6.4km/h 92% 0.00in /  0mm
03:32 47.4 °F /  8.6 °C 45.2 °F /  7.3 °C 30.39in /  1029hPa SE 1.0mph /  1.6km/h 4.0mph /  6.4km/h 92% 0.00in /  0mm
03:37 47.4 °F /  8.6 °C 45.2 °F /  7.3 °C 30.39in /  1029hPa ESE 2.0mph /  3.2km/h 4.0mph /  6.4km/h 92% 0.00in /  0mm
03:42 47.4 °F /  8.6 °C 45.2 °F /  7.3 °C 30.39in /  1029hPa SE 2.0mph /  3.2km/h 3.0mph /  4.8km/h 92% 0.00in /  0mm
03:47 47.3 °F /  8.5 °C 45.1 °F /  7.3 °C 30.39in /  1029hPa ESE 1.0mph /  1.6km/h 3.0mph /  4.8km/h 92% 0.00in /  0mm
03:52 47.4 °F /  8.6 °C 45.2 °F /  7.3 °C 30.39in /  1029hPa Calm   2.0mph /  3.2km/h 92% 0.00in /  0mm
03:57 47.3 °F /  8.5 °C 45.4 °F /  7.4 °C 30.40in /  1029.3hPa SE 1.0mph /  1.6km/h 2.0mph /  3.2km/h 93% 0.00in /  0mm
04:02 47.3 °F /  8.5 °C 45.4 °F /  7.4 °C 30.40in /  1029.3hPa SSW 1.0mph /  1.6km/h 1.0mph /  1.6km/h 93% 0.00in /  0mm
04:07 47.3 °F /  8.5 °C 45.4 °F /  7.4 °C 30.40in /  1029.3hPa Calm   1.0mph /  1.6km/h 93% 0.00in /  0mm
04:12 47.3 °F /  8.5 °C 45.4 °F /  7.4 °C 30.41in /  1029.7hPa Calm   1.0mph /  1.6km/h 93% 0.00in /  0mm
04:17 47.3 °F /  8.5 °C 45.4 °F /  7.4 °C 30.41in /  1029.7hPa Calm   1.0mph /  1.6km/h 93% 0.00in /  0mm
04:22 47.3 °F /  8.5 °C 45.4 °F /  7.4 °C 30.41in /  1029.7hPa Calm   1.0mph /  1.6km/h 93% 0.00in /  0mm
04:27 47.2 °F /  8.4 °C 45.6 °F /  7.6 °C 30.41in /  1029.7hPa Calm     94% 0.00in /  0mm
04:32 47.2 °F /  8.4 °C 45.6 °F /  7.6 °C 30.41in /  1029.7hPa Calm     94% 0.00in /  0mm
04:37 47.2 °F /  8.4 °C 45.6 °F /  7.6 °C 30.41in /  1029.7hPa SE 1.0mph /  1.6km/h 1.0mph /  1.6km/h 94% 0.00in /  0mm
04:42 47.1 °F /  8.4 °C 45.5 °F /  7.5 °C 30.41in /  1029.7hPa ESE 1.0mph /  1.6km/h 1.0mph /  1.6km/h 94% 0.00in /  0mm
04:47 47.1 °F /  8.4 °C 45.5 °F /  7.5 °C 30.41in /  1029.7hPa ESE 1.0mph /  1.6km/h 1.0mph /  1.6km/h 94% 0.00in /  0mm
04:52 47.0 °F /  8.3 °C 45.4 °F /  7.4 °C 30.41in /  1029.7hPa SE 1.0mph /  1.6km/h 1.0mph /  1.6km/h 94% 0.00in /  0mm
04:57 47.0 °F /  8.3 °C 45.4 °F /  7.4 °C 30.41in /  1029.7hPa Calm   2.0mph /  3.2km/h 94% 0.00in /  0mm
05:02 46.9 °F /  8.3 °C 45.3 °F /  7.4 °C 30.41in /  1029.7hPa SE 1.0mph /  1.6km/h 1.0mph /  1.6km/h 94% 0.00in /  0mm
05:07 46.9 °F /  8.3 °C 45.5 °F /  7.5 °C 30.41in /  1029.7hPa Calm   1.0mph /  1.6km/h 95% 0.00in /  0mm
05:12 46.9 °F /  8.3 °C 45.5 °F /  7.5 °C 30.41in /  1029.7hPa Calm     95% 0.00in /  0mm
05:17 46.9 °F /  8.3 °C 45.5 °F /  7.5 °C 30.41in /  1029.7hPa SE 1.0mph /  1.6km/h 1.0mph /  1.6km/h 95% 0.00in /  0mm
05:22 46.9 °F /  8.3 °C 45.5 °F /  7.5 °C 30.41in /  1029.7hPa ESE 1.0mph /  1.6km/h 2.0mph /  3.2km/h 95% 0.00in /  0mm
05:27 46.9 °F /  8.3 °C 45.5 °F /  7.5 °C 30.41in /  1029.7hPa ESE 3.0mph /  4.8km/h 4.0mph /  6.4km/h 95% 0.00in /  0mm
05:32 46.9 °F /  8.3 °C 45.5 °F /  7.5 °C 30.41in /  1029.7hPa SE 4.0mph /  6.4km/h 5.0mph /  8km/h 95% 0.00in /  0mm
05:37 47.0 °F /  8.3 °C 45.4 °F /  7.4 °C 30.41in /  1029.7hPa SE 1.0mph /  1.6km/h 2.0mph /  3.2km/h 94% 0.00in /  0mm
05:43 47.0 °F /  8.3 °C 45.4 °F /  7.4 °C 30.42in /  1030hPa South 3.0mph /  4.8km/h 3.0mph /  4.8km/h 94% 0.00in /  0mm
05:47 47.0 °F /  8.3 °C 45.4 °F /  7.4 °C 30.42in /  1030hPa ESE 1.0mph /  1.6km/h 2.0mph /  3.2km/h 94% 0.00in /  0mm
05:53 47.0 °F /  8.3 °C 45.4 °F /  7.4 °C 30.42in /  1030hPa ESE 2.0mph /  3.2km/h 2.0mph /  3.2km/h 94% 0.00in /  0mm
05:58 47.0 °F /  8.3 °C 45.7 °F /  7.6 °C 30.41in /  1029.7hPa SE 3.0mph /  4.8km/h 4.0mph /  6.4km/h 95% 0.00in /  0mm
06:03 46.9 °F /  8.3 °C 45.5 °F /  7.5 °C 30.41in /  1029.7hPa ESE 2.0mph /  3.2km/h 3.0mph /  4.8km/h 95% 0.00in /  0mm
06:08 46.9 °F /  8.3 °C 45.5 °F /  7.5 °C 30.41in /  1029.7hPa SE 3.0mph /  4.8km/h 3.0mph /  4.8km/h 95% 0.00in /  0mm
06:13 46.8 °F /  8.2 °C 45.5 °F /  7.5 °C 30.41in /  1029.7hPa SE 2.0mph /  3.2km/h 3.0mph /  4.8km/h 95% 0.00in /  0mm
06:18 46.8 °F /  8.2 °C 45.5 °F /  7.5 °C 30.41in /  1029.7hPa SE 2.0mph /  3.2km/h 3.0mph /  4.8km/h 95% 0.00in /  0mm
06:23 46.8 °F /  8.2 °C 45.5 °F /  7.5 °C 30.41in /  1029.7hPa SE 2.0mph /  3.2km/h 3.0mph /  4.8km/h 95% 0.00in /  0mm
06:28 46.8 °F /  8.2 °C 45.5 °F /  7.5 °C 30.42in /  1030hPa SSE 2.0mph /  3.2km/h 2.0mph /  3.2km/h 95% 0.00in /  0mm
06:33 46.8 °F /  8.2 °C 45.5 °F /  7.5 °C 30.42in /  1030hPa SSE 2.0mph /  3.2km/h 2.0mph /  3.2km/h 95% 0.00in /  0mm
06:38 46.8 °F /  8.2 °C 45.5 °F /  7.5 °C 30.42in /  1030hPa SSE 1.0mph /  1.6km/h 1.0mph /  1.6km/h 95% 0.00in /  0mm
06:43 46.8 °F /  8.2 °C 45.5 °F /  7.5 °C 30.42in /  1030hPa SE 3.0mph /  4.8km/h 3.0mph /  4.8km/h 95% 0.00in /  0mm
06:48 46.8 °F /  8.2 °C 45.7 °F /  7.6 °C 30.42in /  1030hPa Calm   3.0mph /  4.8km/h 96% 0.00in /  0mm
06:53 46.8 °F /  8.2 °C 45.7 °F /  7.6 °C 30.42in /  1030hPa SE 1.0mph /  1.6km/h 2.0mph /  3.2km/h 96% 0.00in /  0mm
06:58 46.7 °F /  8.2 °C 45.6 °F /  7.6 °C 30.42in /  1030hPa SE 1.0mph /  1.6km/h 2.0mph /  3.2km/h 96% 0.00in /  0mm
07:03 46.7 °F /  8.2 °C 45.6 °F /  7.6 °C 30.42in /  1030hPa SE 2.0mph /  3.2km/h 2.0mph /  3.2km/h 96% 0.00in /  0mm
07:08 46.7 °F /  8.2 °C 45.6 °F /  7.6 °C 30.42in /  1030hPa ESE 1.0mph /  1.6km/h 2.0mph /  3.2km/h 96% 0.00in /  0mm
07:13 46.7 °F /  8.2 °C 45.6 °F /  7.6 °C 30.42in /  1030hPa ESE 1.0mph /  1.6km/h 2.0mph /  3.2km/h 96% 0.00in /  0mm
07:18 46.7 °F /  8.2 °C 45.6 °F /  7.6 °C 30.42in /  1030hPa Calm   2.0mph /  3.2km/h 96% 0.00in /  0mm
07:23 46.6 °F /  8.1 °C 45.5 °F /  7.5 °C 30.42in /  1030hPa ESE 2.0mph /  3.2km/h 2.0mph /  3.2km/h 96% 0.00in /  0mm
07:28 46.6 °F /  8.1 °C 45.5 °F /  7.5 °C 30.43in /  1030.4hPa ESE 1.0mph /  1.6km/h 2.0mph /  3.2km/h 96% 0.00in /  0mm
07:33 46.6 °F /  8.1 °C 45.5 °F /  7.5 °C 30.42in /  1030hPa ESE 1.0mph /  1.6km/h 2.0mph /  3.2km/h 96% 0.00in /  0mm
07:38 46.6 °F /  8.1 °C 45.5 °F /  7.5 °C 30.42in /  1030hPa ESE 2.0mph /  3.2km/h 3.0mph /  4.8km/h 96% 0.00in /  0mm
07:43 46.6 °F /  8.1 °C 45.5 °F /  7.5 °C 30.42in /  1030hPa ESE 2.0mph /  3.2km/h 3.0mph /  4.8km/h 96% 0.00in /  0mm
07:48 46.6 °F /  8.1 °C 45.5 °F /  7.5 °C 30.42in /  1030hPa ESE 2.0mph /  3.2km/h 3.0mph /  4.8km/h 96% 0.00in /  0mm
07:53 46.7 °F /  8.2 °C 45.6 °F /  7.6 °C 30.42in /  1030hPa ESE 2.0mph /  3.2km/h 3.0mph /  4.8km/h 96% 0.00in /  0mm
07:58 46.7 °F /  8.2 °C 45.6 °F /  7.6 °C 30.43in /  1030.4hPa SE 1.0mph /  1.6km/h 2.0mph /  3.2km/h 96% 0.00in /  0mm
08:03 46.8 °F /  8.2 °C 45.7 °F /  7.6 °C 30.43in /  1030.4hPa ESE 1.0mph /  1.6km/h 1.0mph /  1.6km/h 96% 0.00in /  0mm
08:08 46.8 °F /  8.2 °C 45.7 °F /  7.6 °C 30.44in /  1030.7hPa ESE 1.0mph /  1.6km/h 1.0mph /  1.6km/h 96% 0.00in /  0mm
08:13 46.9 °F /  8.3 °C 45.8 °F /  7.7 °C 30.44in /  1030.7hPa SSE 1.0mph /  1.6km/h 1.0mph /  1.6km/h 96% 0.00in /  0mm
08:18 47.0 °F /  8.3 °C 45.9 °F /  7.7 °C 30.44in /  1030.7hPa SE 1.0mph /  1.6km/h 1.0mph /  1.6km/h 96% 0.00in /  0mm
08:23 47.1 °F /  8.4 °C 46.0 °F /  7.8 °C 30.44in /  1030.7hPa East 2.0mph /  3.2km/h 2.0mph /  3.2km/h 96% 0.00in /  0mm
08:28 47.1 °F /  8.4 °C 45.7 °F /  7.6 °C 30.44in /  1030.7hPa ESE 2.0mph /  3.2km/h 3.0mph /  4.8km/h 95% 0.00in /  0mm
08:33 47.2 °F /  8.4 °C 45.8 °F /  7.7 °C 30.44in /  1030.7hPa ESE 3.0mph /  4.8km/h 6.0mph /  9.7km/h 95% 0.00in /  0mm
08:38 47.3 °F /  8.5 °C 45.9 °F /  7.7 °C 30.45in /  1031hPa SE 3.0mph /  4.8km/h 5.0mph /  8km/h 95% 0.00in /  0mm
08:43 47.4 °F /  8.6 °C 46.0 °F /  7.8 °C 30.45in /  1031hPa ESE 1.0mph /  1.6km/h 5.0mph /  8km/h 95% 0.00in /  0mm
08:48 47.5 °F /  8.6 °C 46.1 °F /  7.8 °C 30.46in /  1031.4hPa SE 1.0mph /  1.6km/h 3.0mph /  4.8km/h 95% 0.00in /  0mm
08:53 47.5 °F /  8.6 °C 45.9 °F /  7.7 °C 30.46in /  1031.4hPa Calm   3.0mph /  4.8km/h 94% 0.00in /  0mm
08:58 47.6 °F /  8.7 °C 46.0 °F /  7.8 °C 30.46in /  1031.4hPa ESE 3.0mph /  4.8km/h 3.0mph /  4.8km/h 94% 0.00in /  0mm
09:03 47.8 °F /  8.8 °C 46.2 °F /  7.9 °C 30.45in /  1031hPa SE 1.0mph /  1.6km/h 3.0mph /  4.8km/h 94% 0.00in /  0mm
09:08 47.9 °F /  8.8 °C 46.3 °F /  7.9 °C 30.45in /  1031hPa ESE 4.0mph /  6.4km/h 4.0mph /  6.4km/h 94% 0.00in /  0mm
09:13 48.0 °F /  8.9 °C 46.4 °F /  8 °C 30.45in /  1031hPa ESE 5.0mph /  8km/h 5.0mph /  8km/h 94% 0.00in /  0mm
09:19 48.1 °F /  8.9 °C 46.5 °F /  8.1 °C 30.44in /  1030.7hPa ESE 4.0mph /  6.4km/h 5.0mph /  8km/h 94% 0.00in /  0mm
09:24 48.3 °F /  9.1 °C 46.4 °F /  8 °C 30.45in /  1031hPa SE 3.0mph /  4.8km/h 6.0mph /  9.7km/h 93% 0.00in /  0mm
09:28 48.4 °F /  9.1 °C 46.5 °F /  8.1 °C 30.45in /  1031hPa ESE 4.0mph /  6.4km/h 5.0mph /  8km/h 93% 0.00in /  0mm
09:34 48.6 °F /  9.2 °C 46.7 °F /  8.2 °C 30.45in /  1031hPa SE 3.0mph /  4.8km/h 5.0mph /  8km/h 93% 0.00in /  0mm
09:39 48.7 °F /  9.3 °C 46.8 °F /  8.2 °C 30.45in /  1031hPa SE 4.0mph /  6.4km/h 5.0mph /  8km/h 93% 0.00in /  0mm
09:44 48.7 °F /  9.3 °C 46.8 °F /  8.2 °C 30.45in /  1031hPa ESE 3.0mph /  4.8km/h 5.0mph /  8km/h 93% 0.00in /  0mm
09:49 48.9 °F /  9.4 °C 47.0 °F /  8.3 °C 30.45in /  1031hPa SSE 3.0mph /  4.8km/h 4.0mph /  6.4km/h 93% 0.00in /  0mm
09:54 49.1 °F /  9.5 °C 46.9 °F /  8.3 °C 30.45in /  1031hPa ESE 3.0mph /  4.8km/h 4.0mph /  6.4km/h 92% 0.00in /  0mm
09:59 49.2 °F /  9.6 °C 47.0 °F /  8.3 °C 30.46in /  1031.4hPa SE 3.0mph /  4.8km/h 4.0mph /  6.4km/h 92% 0.00in /  0mm
10:04 49.2 °F /  9.6 °C 47.0 °F /  8.3 °C 30.46in /  1031.4hPa SE 1.0mph /  1.6km/h 5.0mph /  8km/h 92% 0.00in /  0mm
10:09 49.3 °F /  9.6 °C 46.8 °F /  8.2 °C 30.47in /  1031.7hPa SSW 3.0mph /  4.8km/h 3.0mph /  4.8km/h 91% 0.00in /  0mm
10:14 49.5 °F /  9.7 °C 47.0 °F /  8.3 °C 30.47in /  1031.7hPa SSE 1.0mph /  1.6km/h 3.0mph /  4.8km/h 91% 0.00in /  0mm
10:19 49.6 °F /  9.8 °C 47.1 °F /  8.4 °C 30.47in /  1031.7hPa SSE 2.0mph /  3.2km/h 3.0mph /  4.8km/h 91% 0.00in /  0mm
10:24 49.7 °F /  9.8 °C 47.2 °F /  8.4 °C 30.47in /  1031.7hPa SE 3.0mph /  4.8km/h 5.0mph /  8km/h 91% 0.00in /  0mm
10:29 49.8 °F /  9.9 °C 47.3 °F /  8.5 °C 30.48in /  1032.1hPa South 4.0mph /  6.4km/h 4.0mph /  6.4km/h 91% 0.00in /  0mm
10:34 50.0 °F /  10 °C 47.5 °F /  8.6 °C 30.47in /  1031.7hPa SE 3.0mph /  4.8km/h 5.0mph /  8km/h 91% 0.00in /  0mm
10:39 50.3 °F /  10.2 °C 47.8 °F /  8.8 °C 30.47in /  1031.7hPa SE 4.0mph /  6.4km/h 7.0mph /  11.3km/h 91% 0.00in /  0mm
10:44 50.3 °F /  10.2 °C 47.5 °F /  8.6 °C 30.47in /  1031.7hPa SSE 4.0mph /  6.4km/h 6.0mph /  9.7km/h 90% 0.00in /  0mm
10:49 50.4 °F /  10.2 °C 47.6 °F /  8.7 °C 30.47in /  1031.7hPa SE 4.0mph /  6.4km/h 7.0mph /  11.3km/h 90% 0.00in /  0mm
10:54 50.3 °F /  10.2 °C 47.5 °F /  8.6 °C 30.48in /  1032.1hPa SW 1.0mph /  1.6km/h 5.0mph /  8km/h 90% 0.00in /  0mm
10:59 50.6 °F /  10.3 °C 48.1 °F /  8.9 °C 30.48in /  1032.1hPa SSE 2.0mph /  3.2km/h 6.0mph /  9.7km/h 91% 0.00in /  0mm
11:04 50.8 °F /  10.4 °C 48.0 °F /  8.9 °C 30.48in /  1032.1hPa SSE 3.0mph /  4.8km/h 5.0mph /  8km/h 90% 0.00in /  0mm
11:09 50.8 °F /  10.4 °C 48.0 °F /  8.9 °C 30.47in /  1031.7hPa South 2.0mph /  3.2km/h 5.0mph /  8km/h 90% 0.00in /  0mm
11:14 51.4 °F /  10.8 °C 48.3 °F /  9.1 °C 30.47in /  1031.7hPa SSE 3.0mph /  4.8km/h 4.0mph /  6.4km/h 89% 0.00in /  0mm
11:19 51.6 °F /  10.9 °C 48.5 °F /  9.2 °C 30.47in /  1031.7hPa SE 2.0mph /  3.2km/h 5.0mph /  8km/h 89% 0.00in /  0mm
11:24 51.6 °F /  10.9 °C 48.2 °F /  9 °C 30.47in /  1031.7hPa SE 3.0mph /  4.8km/h 6.0mph /  9.7km/h 88% 0.00in /  0mm
11:29 51.5 °F /  10.8 °C 48.4 °F /  9.1 °C 30.47in /  1031.7hPa SSE 2.0mph /  3.2km/h 2.0mph /  3.2km/h 89% 0.00in /  0mm
11:34 52.1 °F /  11.2 °C 48.7 °F /  9.3 °C 30.46in /  1031.4hPa SE 2.0mph /  3.2km/h 5.0mph /  8km/h 88% 0.00in /  0mm
11:40 52.4 °F /  11.3 °C 48.7 °F /  9.3 °C 30.46in /  1031.4hPa Calm   4.0mph /  6.4km/h 87% 0.00in /  0mm
11:45 52.6 °F /  11.4 °C 48.8 °F /  9.3 °C 30.46in /  1031.4hPa SE 3.0mph /  4.8km/h 4.0mph /  6.4km/h 87% 0.00in /  0mm
11:50 52.7 °F /  11.5 °C 49.0 °F /  9.4 °C 30.46in /  1031.4hPa SSE 2.0mph /  3.2km/h 5.0mph /  8km/h 87% 0.00in /  0mm
11:55 52.9 °F /  11.6 °C 48.8 °F /  9.3 °C 30.46in /  1031.4hPa SSE 4.0mph /  6.4km/h 4.0mph /  6.4km/h 86% 0.00in /  0mm
12:00 53.0 °F /  11.7 °C 49.2 °F /  9.6 °C 30.46in /  1031.4hPa SSW 3.0mph /  4.8km/h 4.0mph /  6.4km/h 87% 0.00in /  0mm
12:05 53.1 °F /  11.7 °C 49.0 °F /  9.4 °C 30.46in /  1031.4hPa SE 2.0mph /  3.2km/h 3.0mph /  4.8km/h 86% 0.00in /  0mm
12:10 53.4 °F /  11.9 °C 49.3 °F /  9.6 °C 30.46in /  1031.4hPa SSW 1.0mph /  1.6km/h 4.0mph /  6.4km/h 86% 0.00in /  0mm
12:15 53.6 °F /  12 °C 49.2 °F /  9.6 °C 30.45in /  1031hPa SSE 1.0mph /  1.6km/h 3.0mph /  4.8km/h 85% 0.00in /  0mm
12:20 53.8 °F /  12.1 °C 49.1 °F /  9.5 °C 30.45in /  1031hPa West 1.0mph /  1.6km/h 2.0mph /  3.2km/h 84% 0.00in /  0mm
12:25 54.0 °F /  12.2 °C 49.6 °F /  9.8 °C 30.45in /  1031hPa East 3.0mph /  4.8km/h 5.0mph /  8km/h 85% 0.00in /  0mm
12:30 54.0 °F /  12.2 °C 49.3 °F /  9.6 °C 30.45in /  1031hPa SE 1.0mph /  1.6km/h 3.0mph /  4.8km/h 84% 0.00in /  0mm
12:35 53.9 °F /  12.2 °C 49.2 °F /  9.6 °C 30.45in /  1031hPa SE 4.0mph /  6.4km/h 5.0mph /  8km/h 84% 0.00in /  0mm
12:40 53.8 °F /  12.1 °C 49.1 °F /  9.5 °C 30.44in /  1030.7hPa East 2.0mph /  3.2km/h 3.0mph /  4.8km/h 84% 0.00in /  0mm
12:45 53.9 °F /  12.2 °C 49.5 °F /  9.7 °C 30.44in /  1030.7hPa SE 3.0mph /  4.8km/h 5.0mph /  8km/h 85% 0.00in /  0mm
12:50 53.9 °F /  12.2 °C 49.2 °F /  9.6 °C 30.43in /  1030.4hPa ESE 3.0mph /  4.8km/h 5.0mph /  8km/h 84% 0.00in /  0mm
12:55 53.9 °F /  12.2 °C 49.5 °F /  9.7 °C 30.43in /  1030.4hPa ESE 1.0mph /  1.6km/h 3.0mph /  4.8km/h 85% 0.00in /  0mm
13:00 54.2 °F /  12.3 °C 49.5 °F /  9.7 °C 30.42in /  1030hPa East 4.0mph /  6.4km/h 5.0mph /  8km/h 84% 0.00in /  0mm
13:05 54.3 °F /  12.4 °C 49.6 °F /  9.8 °C 30.42in /  1030hPa East 3.0mph /  4.8km/h 4.0mph /  6.4km/h 84% 0.00in /  0mm
13:10 54.8 °F /  12.7 °C 49.7 °F /  9.8 °C 30.42in /  1030hPa NW 3.0mph /  4.8km/h 3.0mph /  4.8km/h 83% 0.00in /  0mm
13:15 55.1 °F /  12.8 °C 50.0 °F /  10 °C 30.42in /  1030hPa North 2.0mph /  3.2km/h 3.0mph /  4.8km/h 83% 0.00in /  0mm
13:20 55.2 °F /  12.9 °C 49.8 °F /  9.9 °C 30.42in /  1030hPa Calm   3.0mph /  4.8km/h 82% 0.00in /  0mm
13:25 55.4 °F /  13 °C 50.0 °F /  10 °C 30.42in /  1030hPa ENE 1.0mph /  1.6km/h 2.0mph /  3.2km/h 82% 0.00in /  0mm
13:30 55.3 °F /  12.9 °C 49.9 °F /  9.9 °C 30.42in /  1030hPa East 2.0mph /  3.2km/h 3.0mph /  4.8km/h 82% 0.00in /  0mm
13:35 55.6 °F /  13.1 °C 50.5 °F /  10.3 °C 30.41in /  1029.7hPa East 2.0mph /  3.2km/h 3.0mph /  4.8km/h 83% 0.00in /  0mm
13:40 55.6 °F /  13.1 °C 50.2 °F /  10.1 °C 30.41in /  1029.7hPa ESE 2.0mph /  3.2km/h 3.0mph /  4.8km/h 82% 0.00in /  0mm
13:45 55.5 °F /  13.1 °C 50.1 °F /  10.1 °C 30.41in /  1029.7hPa NNE 3.0mph /  4.8km/h 4.0mph /  6.4km/h 82% 0.00in /  0mm
13:50 55.7 °F /  13.2 °C 50.3 °F /  10.2 °C 30.41in /  1029.7hPa NE 1.0mph /  1.6km/h 2.0mph /  3.2km/h 82% 0.00in /  0mm
13:55 56.2 °F /  13.4 °C 50.8 °F /  10.4 °C 30.41in /  1029.7hPa Calm   1.0mph /  1.6km/h 82% 0.00in /  0mm
14:00 57.0 °F /  13.9 °C 50.9 °F /  10.5 °C 30.41in /  1029.7hPa South 2.0mph /  3.2km/h 3.0mph /  4.8km/h 80% 0.00in /  0mm
14:05 57.3 °F /  14.1 °C 50.8 °F /  10.4 °C 30.41in /  1029.7hPa North 1.0mph /  1.6km/h 4.0mph /  6.4km/h 79% 0.00in /  0mm
14:10 57.0 °F /  13.9 °C 50.9 °F /  10.5 °C 30.40in /  1029.3hPa East 3.0mph /  4.8km/h 3.0mph /  4.8km/h 80% 0.00in /  0mm
14:15 57.2 °F /  14 °C 51.1 °F /  10.6 °C 30.40in /  1029.3hPa ENE 4.0mph /  6.4km/h 5.0mph /  8km/h 80% 0.00in /  0mm
14:21 57.2 °F /  14 °C 50.8 °F /  10.4 °C 30.40in /  1029.3hPa Calm   2.0mph /  3.2km/h 79% 0.00in /  0mm
14:26 57.2 °F /  14 °C 51.4 °F /  10.8 °C 30.39in /  1029hPa SE 1.0mph /  1.6km/h 3.0mph /  4.8km/h 81% 0.00in /  0mm
14:31 57.5 °F /  14.2 °C 51.0 °F /  10.6 °C 30.39in /  1029hPa SE 1.0mph /  1.6km/h 3.0mph /  4.8km/h 79% 0.00in /  0mm
14:36 57.9 °F /  14.4 °C 51.4 °F /  10.8 °C 30.39in /  1029hPa NNE 2.0mph /  3.2km/h 3.0mph /  4.8km/h 79% 0.00in /  0mm
14:41 58.2 °F /  14.6 °C 51.0 °F /  10.6 °C 30.39in /  1029hPa SE 4.0mph /  6.4km/h 4.0mph /  6.4km/h 77% 0.00in /  0mm
14:46 57.9 °F /  14.4 °C 51.1 °F /  10.6 °C 30.39in /  1029hPa East 5.0mph /  8km/h 5.0mph /  8km/h 78% 0.00in /  0mm
14:51 57.6 °F /  14.2 °C 51.1 °F /  10.6 °C 30.39in /  1029hPa ESE 3.0mph /  4.8km/h 3.0mph /  4.8km/h 79% 0.00in /  0mm
14:56 57.9 °F /  14.4 °C 51.4 °F /  10.8 °C 30.38in /  1028.7hPa ESE 2.0mph /  3.2km/h 3.0mph /  4.8km/h 79% 0.00in /  0mm
15:01 58.0 °F /  14.4 °C 51.2 °F /  10.7 °C 30.38in /  1028.7hPa NNE 1.0mph /  1.6km/h 4.0mph /  6.4km/h 78% 0.00in /  0mm
15:06 58.0 °F /  14.4 °C 51.2 °F /  10.7 °C 30.38in /  1028.7hPa ENE 5.0mph /  8km/h 5.0mph /  8km/h 78% 0.00in /  0mm
15:11 58.1 °F /  14.5 °C 51.3 °F /  10.7 °C 30.38in /  1028.7hPa NNW 1.0mph /  1.6km/h 4.0mph /  6.4km/h 78% 0.00in /  0mm
15:16 58.4 °F /  14.7 °C 51.2 °F /  10.7 °C 30.38in /  1028.7hPa NE 2.0mph /  3.2km/h 5.0mph /  8km/h 77% 0.00in /  0mm
15:21 58.3 °F /  14.6 °C 51.1 °F /  10.6 °C 30.38in /  1028.7hPa NE 5.0mph /  8km/h 5.0mph /  8km/h 77% 0.00in /  0mm
15:26 58.0 °F /  14.4 °C 51.2 °F /  10.7 °C 30.37in /  1028.3hPa Calm   5.0mph /  8km/h 78% 0.00in /  0mm
15:31 58.3 °F /  14.6 °C 51.5 °F /  10.8 °C 30.37in /  1028.3hPa East 2.0mph /  3.2km/h 3.0mph /  4.8km/h 78% 0.00in /  0mm
15:36 58.6 °F /  14.8 °C 51.8 °F /  11 °C 30.37in /  1028.3hPa NE 3.0mph /  4.8km/h 6.0mph /  9.7km/h 78% 0.00in /  0mm
15:41 58.6 °F /  14.8 °C 51.4 °F /  10.8 °C 30.37in /  1028.3hPa NE 4.0mph /  6.4km/h 5.0mph /  8km/h 77% 0.00in /  0mm
15:47 58.3 °F /  14.6 °C 51.1 °F /  10.6 °C 30.37in /  1028.3hPa NNE 2.0mph /  3.2km/h 5.0mph /  8km/h 77% 0.00in /  0mm
15:52 58.4 °F /  14.7 °C 51.6 °F /  10.9 °C 30.36in /  1028hPa ENE 4.0mph /  6.4km/h 5.0mph /  8km/h 78% 0.00in /  0mm
15:57 58.7 °F /  14.8 °C 51.5 °F /  10.8 °C 30.36in /  1028hPa SE 2.0mph /  3.2km/h 3.0mph /  4.8km/h 77% 0.00in /  0mm
16:02 58.9 °F /  14.9 °C 51.7 °F /  10.9 °C 30.36in /  1028hPa SE 3.0mph /  4.8km/h 6.0mph /  9.7km/h 77% 0.00in /  0mm
16:07 59.4 °F /  15.2 °C 51.8 °F /  11 °C 30.36in /  1028hPa SE 4.0mph /  6.4km/h 6.0mph /  9.7km/h 76% 0.00in /  0mm
16:12 59.4 °F /  15.2 °C 51.5 °F /  10.8 °C 30.36in /  1028hPa East 5.0mph /  8km/h 8.0mph /  12.9km/h 75% 0.00in /  0mm
16:17 59.2 °F /  15.1 °C 51.3 °F /  10.7 °C 30.36in /  1028hPa SE 1.0mph /  1.6km/h 6.0mph /  9.7km/h 75% 0.00in /  0mm
16:22 59.3 °F /  15.2 °C 51.4 °F /  10.8 °C 30.36in /  1028hPa East 3.0mph /  4.8km/h 3.0mph /  4.8km/h 75% 0.00in /  0mm
16:27 59.3 °F /  15.2 °C 51.4 °F /  10.8 °C 30.35in /  1027.7hPa ESE 2.0mph /  3.2km/h 3.0mph /  4.8km/h 75% 0.00in /  0mm
16:32 59.2 °F /  15.1 °C 51.3 °F /  10.7 °C 30.35in /  1027.7hPa SE 2.0mph /  3.2km/h 5.0mph /  8km/h 75% 0.00in /  0mm
16:37 59.1 °F /  15.1 °C 51.5 °F /  10.8 °C 30.35in /  1027.7hPa ESE 2.0mph /  3.2km/h 5.0mph /  8km/h 76% 0.00in /  0mm
16:42 59.0 °F /  15 °C 51.1 °F /  10.6 °C 30.36in /  1028hPa ESE 2.0mph /  3.2km/h 3.0mph /  4.8km/h 75% 0.00in /  0mm
16:47 59.1 °F /  15.1 °C 51.5 °F /  10.8 °C 30.36in /  1028hPa ENE 2.0mph /  3.2km/h 2.0mph /  3.2km/h 76% 0.00in /  0mm
16:52 59.1 °F /  15.1 °C 51.2 °F /  10.7 °C 30.36in /  1028hPa Calm   2.0mph /  3.2km/h 75% 0.00in /  0mm
16:57 59.2 °F /  15.1 °C 51.3 °F /  10.7 °C 30.36in /  1028hPa Calm     75% 0.00in /  0mm
17:02 59.2 °F /  15.1 °C 50.9 °F /  10.5 °C 30.36in /  1028hPa Calm   1.0mph /  1.6km/h 74% 0.00in /  0mm
17:07 59.0 °F /  15 °C 51.1 °F /  10.6 °C 30.36in /  1028hPa East 1.0mph /  1.6km/h 1.0mph /  1.6km/h 75% 0.00in /  0mm
17:12 58.7 °F /  14.8 °C 51.2 °F /  10.7 °C 30.36in /  1028hPa Calm   1.0mph /  1.6km/h 76% 0.00in /  0mm
17:17 58.4 °F /  14.7 °C 50.9 °F /  10.5 °C 30.36in /  1028hPa East 1.0mph /  1.6km/h 1.0mph /  1.6km/h 76% 0.00in /  0mm
17:22 58.1 °F /  14.5 °C 50.6 °F /  10.3 °C 30.36in /  1028hPa East 2.0mph /  3.2km/h 2.0mph /  3.2km/h 76% 0.00in /  0mm
17:27 57.9 °F /  14.4 °C 50.7 °F /  10.4 °C 30.36in /  1028hPa Calm   1.0mph /  1.6km/h 77% 0.00in /  0mm
17:32 57.5 °F /  14.2 °C 50.4 °F /  10.2 °C 30.36in /  1028hPa East 1.0mph /  1.6km/h 1.0mph /  1.6km/h 77% 0.00in /  0mm
17:37 57.0 °F /  13.9 °C 50.2 °F /  10.1 °C 30.36in /  1028hPa East 1.0mph /  1.6km/h 2.0mph /  3.2km/h 78% 0.00in /  0mm
17:42 56.6 °F /  13.7 °C 50.2 °F /  10.1 °C 30.36in /  1028hPa East 1.0mph /  1.6km/h 1.0mph /  1.6km/h 79% 0.00in /  0mm
17:47 56.3 °F /  13.5 °C 50.2 °F /  10.1 °C 30.35in /  1027.7hPa East 1.0mph /  1.6km/h 1.0mph /  1.6km/h 80% 0.00in /  0mm
17:52 56.3 °F /  13.5 °C 50.2 °F /  10.1 °C 30.35in /  1027.7hPa ENE 1.0mph /  1.6km/h 2.0mph /  3.2km/h 80% 0.00in /  0mm
17:58 56.1 °F /  13.4 °C 50.0 °F /  10 °C 30.35in /  1027.7hPa Calm   1.0mph /  1.6km/h 80% 0.00in /  0mm
18:03 55.9 °F /  13.3 °C 50.2 °F /  10.1 °C 30.35in /  1027.7hPa ENE 1.0mph /  1.6km/h 1.0mph /  1.6km/h 81% 0.00in /  0mm
18:08 55.9 °F /  13.3 °C 50.2 °F /  10.1 °C 30.35in /  1027.7hPa Calm   2.0mph /  3.2km/h 81% 0.00in /  0mm
18:13 55.8 °F /  13.2 °C 50.1 °F /  10.1 °C 30.35in /  1027.7hPa Calm   1.0mph /  1.6km/h 81% 0.00in /  0mm
18:18 55.6 °F /  13.1 °C 49.9 °F /  9.9 °C 30.35in /  1027.7hPa Calm   1.0mph /  1.6km/h 81% 0.00in /  0mm
18:23 55.1 °F /  12.8 °C 49.7 °F /  9.8 °C 30.35in /  1027.7hPa ENE 2.0mph /  3.2km/h 2.0mph /  3.2km/h 82% 0.00in /  0mm
18:28 54.4 °F /  12.4 °C 49.7 °F /  9.8 °C 30.35in /  1027.7hPa ENE 1.0mph /  1.6km/h 1.0mph /  1.6km/h 84% 0.00in /  0mm
18:33 54.3 °F /  12.4 °C 49.6 °F /  9.8 °C 30.35in /  1027.7hPa ENE 1.0mph /  1.6km/h 1.0mph /  1.6km/h 84% 0.00in /  0mm
18:38 54.3 °F /  12.4 °C 49.6 °F /  9.8 °C 30.35in /  1027.7hPa ENE 1.0mph /  1.6km/h 1.0mph /  1.6km/h 84% 0.00in /  0mm
18:43 54.3 °F /  12.4 °C 49.6 °F /  9.8 °C 30.35in /  1027.7hPa ENE 1.0mph /  1.6km/h 2.0mph /  3.2km/h 84% 0.00in /  0mm
18:48 54.1 °F /  12.3 °C 49.7 °F /  9.8 °C 30.35in /  1027.7hPa Calm   1.0mph /  1.6km/h 85% 0.00in /  0mm
18:53 53.9 °F /  12.2 °C 49.5 °F /  9.7 °C 30.36in /  1028hPa Calm   1.0mph /  1.6km/h 85% 0.00in /  0mm
18:58 53.8 °F /  12.1 °C 49.4 °F /  9.7 °C 30.36in /  1028hPa ENE 1.0mph /  1.6km/h 1.0mph /  1.6km/h 85% 0.00in /  0mm
19:03 53.7 °F /  12.1 °C 49.6 °F /  9.8 °C 30.36in /  1028hPa ENE 1.0mph /  1.6km/h 2.0mph /  3.2km/h 86% 0.00in /  0mm
19:08 53.6 °F /  12 °C 49.5 °F /  9.7 °C 30.36in /  1028hPa Calm   1.0mph /  1.6km/h 86% 0.00in /  0mm
19:13 53.4 °F /  11.9 °C 49.3 °F /  9.6 °C 30.36in /  1028hPa Calm   1.0mph /  1.6km/h 86% 0.00in /  0mm
19:18 53.2 °F /  11.8 °C 49.4 °F /  9.7 °C 30.36in /  1028hPa Calm   1.0mph /  1.6km/h 87% 0.00in /  0mm
19:23 53.2 °F /  11.8 °C 49.4 °F /  9.7 °C 30.36in /  1028hPa ESE 2.0mph /  3.2km/h 2.0mph /  3.2km/h 87% 0.00in /  0mm
19:28 53.2 °F /  11.8 °C 49.4 °F /  9.7 °C 30.37in /  1028.3hPa Calm   2.0mph /  3.2km/h 87% 0.00in /  0mm
19:33 53.1 °F /  11.7 °C 49.3 °F /  9.6 °C 30.37in /  1028.3hPa Calm   1.0mph /  1.6km/h 87% 0.00in /  0mm
19:38 52.8 °F /  11.6 °C 49.0 °F /  9.4 °C 30.37in /  1028.3hPa ENE 1.0mph /  1.6km/h 2.0mph /  3.2km/h 87% 0.00in /  0mm
19:43 52.5 °F /  11.4 °C 49.0 °F /  9.4 °C 30.37in /  1028.3hPa NE 1.0mph /  1.6km/h 2.0mph /  3.2km/h 88% 0.00in /  0mm
19:49 52.5 °F /  11.4 °C 49.4 °F /  9.7 °C 30.37in /  1028.3hPa NE 2.0mph /  3.2km/h 3.0mph /  4.8km/h 89% 0.00in /  0mm
19:54 52.4 °F /  11.3 °C 49.0 °F /  9.4 °C 30.37in /  1028.3hPa NE 2.0mph /  3.2km/h 3.0mph /  4.8km/h 88% 0.00in /  0mm
19:59 52.3 °F /  11.3 °C 49.2 °F /  9.6 °C 30.37in /  1028.3hPa NE 2.0mph /  3.2km/h 3.0mph /  4.8km/h 89% 0.00in /  0mm
20:04 52.1 °F /  11.2 °C 49.0 °F /  9.4 °C 30.37in /  1028.3hPa NE 1.0mph /  1.6km/h 2.0mph /  3.2km/h 89% 0.00in /  0mm
20:09 52.1 °F /  11.2 °C 49.3 °F /  9.6 °C 30.37in /  1028.3hPa ENE 1.0mph /  1.6km/h 3.0mph /  4.8km/h 90% 0.00in /  0mm
20:14 52.0 °F /  11.1 °C 48.9 °F /  9.4 °C 30.37in /  1028.3hPa NE 1.0mph /  1.6km/h 2.0mph /  3.2km/h 89% 0.00in /  0mm
20:19 51.8 °F /  11 °C 49.0 °F /  9.4 °C 30.37in /  1028.3hPa NE 2.0mph /  3.2km/h 2.0mph /  3.2km/h 90% 0.00in /  0mm
20:24 51.6 °F /  10.9 °C 48.8 °F /  9.3 °C 30.37in /  1028.3hPa ENE 1.0mph /  1.6km/h 2.0mph /  3.2km/h 90% 0.00in /  0mm
20:29 51.4 °F /  10.8 °C 48.6 °F /  9.2 °C 30.36in /  1028hPa ENE 1.0mph /  1.6km/h 1.0mph /  1.6km/h 90% 0.00in /  0mm
20:34 51.4 °F /  10.8 °C 48.9 °F /  9.4 °C 30.37in /  1028.3hPa Calm   2.0mph /  3.2km/h 91% 0.00in /  0mm
20:39 51.3 °F /  10.7 °C 48.8 °F /  9.3 °C 30.37in /  1028.3hPa NE 2.0mph /  3.2km/h 2.0mph /  3.2km/h 91% 0.00in /  0mm
20:44 51.3 °F /  10.7 °C 48.8 °F /  9.3 °C 30.36in /  1028hPa East 1.0mph /  1.6km/h 2.0mph /  3.2km/h 91% 0.00in /  0mm
20:49 51.2 °F /  10.7 °C 48.7 °F /  9.3 °C 30.36in /  1028hPa East 1.0mph /  1.6km/h 2.0mph /  3.2km/h 91% 0.00in /  0mm
20:54 51.0 °F /  10.6 °C 48.5 °F /  9.2 °C 30.36in /  1028hPa ESE 2.0mph /  3.2km/h 2.0mph /  3.2km/h 91% 0.00in /  0mm
20:59 50.9 °F /  10.5 °C 48.7 °F /  9.3 °C 30.36in /  1028hPa East 2.0mph /  3.2km/h 3.0mph /  4.8km/h 92% 0.00in /  0mm
21:04 51.1 °F /  10.6 °C 48.9 °F /  9.4 °C 30.36in /  1028hPa ENE 2.0mph /  3.2km/h 3.0mph /  4.8km/h 92% 0.00in /  0mm
21:09 51.2 °F /  10.7 °C 49.0 °F /  9.4 °C 30.36in /  1028hPa ENE 1.0mph /  1.6km/h 1.0mph /  1.6km/h 92% 0.00in /  0mm
21:14 51.2 °F /  10.7 °C 49.0 °F /  9.4 °C 30.36in /  1028hPa East 1.0mph /  1.6km/h 2.0mph /  3.2km/h 92% 0.00in /  0mm
21:19 51.1 °F /  10.6 °C 48.9 °F /  9.4 °C 30.36in /  1028hPa East 1.0mph /  1.6km/h 1.0mph /  1.6km/h 92% 0.00in /  0mm
21:24 51.0 °F /  10.6 °C 48.8 °F /  9.3 °C 30.36in /  1028hPa Calm   1.0mph /  1.6km/h 92% 0.00in /  0mm
21:29 50.9 °F /  10.5 °C 48.7 °F /  9.3 °C 30.36in /  1028hPa ESE 1.0mph /  1.6km/h 1.0mph /  1.6km/h 92% 0.00in /  0mm
21:35 50.8 °F /  10.4 °C 48.6 °F /  9.2 °C 30.36in /  1028hPa ESE 1.0mph /  1.6km/h 2.0mph /  3.2km/h 92% 0.00in /  0mm
21:40 50.8 °F /  10.4 °C 48.8 °F /  9.3 °C 30.36in /  1028hPa East 2.0mph /  3.2km/h 2.0mph /  3.2km/h 93% 0.00in /  0mm
21:45 51.0 °F /  10.6 °C 49.0 °F /  9.4 °C 30.36in /  1028hPa East 2.0mph /  3.2km/h 3.0mph /  4.8km/h 93% 0.00in /  0mm
21:50 51.1 °F /  10.6 °C 49.2 °F /  9.6 °C 30.36in /  1028hPa East 1.0mph /  1.6km/h 2.0mph /  3.2km/h 93% 0.00in /  0mm
21:55 51.1 °F /  10.6 °C 48.9 °F /  9.4 °C 30.36in /  1028hPa ESE 1.0mph /  1.6km/h 2.0mph /  3.2km/h 92% 0.00in /  0mm
22:00 50.9 °F /  10.5 °C 48.7 °F /  9.3 °C 30.36in /  1028hPa East 1.0mph /  1.6km/h 2.0mph /  3.2km/h 92% 0.00in /  0mm
22:05 50.9 °F /  10.5 °C 48.7 °F /  9.3 °C 30.36in /  1028hPa East 2.0mph /  3.2km/h 2.0mph /  3.2km/h 92% 0.00in /  0mm
22:10 50.7 °F /  10.4 °C 48.8 °F /  9.3 °C 30.35in /  1027.7hPa ESE 1.0mph /  1.6km/h 3.0mph /  4.8km/h 93% 0.00in /  0mm
22:15 50.6 °F /  10.3 °C 48.7 °F /  9.3 °C 30.35in /  1027.7hPa East 1.0mph /  1.6km/h 3.0mph /  4.8km/h 93% 0.00in /  0mm
22:20 50.5 °F /  10.3 °C 48.6 °F /  9.2 °C 30.35in /  1027.7hPa East 1.0mph /  1.6km/h 3.0mph /  4.8km/h 93% 0.00in /  0mm
22:25 50.5 °F /  10.3 °C 48.6 °F /  9.2 °C 30.35in /  1027.7hPa East 1.0mph /  1.6km/h 2.0mph /  3.2km/h 93% 0.00in /  0mm
22:30 50.3 °F /  10.2 °C 48.4 °F /  9.1 °C 30.35in /  1027.7hPa East 3.0mph /  4.8km/h 3.0mph /  4.8km/h 93% 0.00in /  0mm
22:35 50.3 °F /  10.2 °C 48.4 °F /  9.1 °C 30.35in /  1027.7hPa Calm   2.0mph /  3.2km/h 93% 0.00in /  0mm
22:40 50.4 °F /  10.2 °C 48.5 °F /  9.2 °C 30.34in /  1027.3hPa East 2.0mph /  3.2km/h 3.0mph /  4.8km/h 93% 0.00in /  0mm
22:45 50.5 °F /  10.3 °C 48.6 °F /  9.2 °C 30.35in /  1027.7hPa East 3.0mph /  4.8km/h 3.0mph /  4.8km/h 93% 0.00in /  0mm
22:50 50.6 °F /  10.3 °C 48.7 °F /  9.3 °C 30.35in /  1027.7hPa Calm   2.0mph /  3.2km/h 93% 0.00in /  0mm
22:55 50.5 °F /  10.3 °C 48.6 °F /  9.2 °C 30.35in /  1027.7hPa Calm     93% 0.00in /  0mm
23:00 50.3 °F /  10.2 °C 48.4 °F /  9.1 °C 30.35in /  1027.7hPa Calm     93% 0.00in /  0mm
23:05 50.3 °F /  10.2 °C 48.6 °F /  9.2 °C 30.35in /  1027.7hPa Calm   2.0mph /  3.2km/h 94% 0.00in /  0mm
23:10 50.2 °F /  10.1 °C 48.5 °F /  9.2 °C 30.35in /  1027.7hPa ESE 2.0mph /  3.2km/h 2.0mph /  3.2km/h 94% 0.00in /  0mm
23:15 50.3 °F /  10.2 °C 48.6 °F /  9.2 °C 30.35in /  1027.7hPa ESE 2.0mph /  3.2km/h 3.0mph /  4.8km/h 94% 0.00in /  0mm
23:20 50.2 °F /  10.1 °C 48.5 °F /  9.2 °C 30.35in /  1027.7hPa East 3.0mph /  4.8km/h 3.0mph /  4.8km/h 94% 0.00in /  0mm
23:25 50.1 °F /  10.1 °C 48.4 °F /  9.1 °C 30.35in /  1027.7hPa ESE 2.0mph /  3.2km/h 4.0mph /  6.4km/h 94% 0.00in /  0mm
23:30 50.0 °F /  10 °C 48.3 °F /  9.1 °C 30.34in /  1027.3hPa ESE 2.0mph /  3.2km/h 4.0mph /  6.4km/h 94% 0.00in /  0mm
23:35 49.5 °F /  9.7 °C 47.6 °F /  8.7 °C 30.34in /  1027.3hPa ESE 2.0mph /  3.2km/h 3.0mph /  4.8km/h 93% 0.00in /  0mm
23:40 49.6 °F /  9.8 °C 48.0 °F /  8.9 °C 30.34in /  1027.3hPa East 3.0mph /  4.8km/h 4.0mph /  6.4km/h 94% 0.00in /  0mm
23:46 49.8 °F /  9.9 °C 48.2 °F /  9 °C 30.34in /  1027.3hPa ESE 2.0mph /  3.2km/h 4.0mph /  6.4km/h 94% 0.00in /  0mm
23:51 49.9 °F /  9.9 °C 48.2 °F /  9 °C 30.34in /  1027.3hPa East 4.0mph /  6.4km/h 4.0mph /  6.4km/h 94% 0.00in /  0mm
23:56 50.0 °F /  10 °C 48.3 °F /  9.1 °C 30.33in /  1027hPa ESE 3.0mph /  4.8km/h 4.0mph /  6.4km/h 94% 0.00in /  0mm
Compliments of Weather Underground